createdAt,value
2018-04-12T00:01:34.625Z,100222.80
2018-04-12T00:04:03.087Z,100220.27
2018-04-12T00:06:32.265Z,100213.96
2018-04-12T00:09:01.322Z,100213.51
2018-04-12T00:11:29.707Z,100213.16
2018-04-12T00:13:58.081Z,100206.48
2018-04-12T00:16:26.438Z,100209.53
2018-04-12T00:18:54.777Z,100205.75
2018-04-12T00:21:23.899Z,100200.72
2018-04-12T00:23:52.413Z,100200.41
2018-04-12T00:26:20.780Z,100200.01
2018-04-12T00:28:49.066Z,100192.50
2018-04-12T00:31:17.406Z,100191.42
2018-04-12T00:33:45.754Z,100190.63
2018-04-12T00:36:14.188Z,100185.83
2018-04-12T00:38:42.465Z,100177.75
2018-04-12T00:41:11.002Z,100186.37
2018-04-12T00:43:40.037Z,100179.46
2018-04-12T00:46:08.373Z,100172.47
2018-04-12T00:48:37.452Z,100174.45
2018-04-12T00:51:06.698Z,100174.91
2018-04-12T00:54:16.897Z,100170.11
2018-04-12T00:56:45.356Z,100169.72
2018-04-12T00:59:14.406Z,100168.12
2018-04-12T01:01:42.993Z,100167.35
2018-04-12T01:04:12.115Z,100157.92
2018-04-12T01:06:40.514Z,100167.10
2018-04-12T01:09:08.861Z,100159.09
2018-04-12T01:11:37.173Z,100147.27
2018-04-12T01:14:05.519Z,100155.83
2018-04-12T01:16:33.974Z,100159.77
2018-04-12T01:19:03.141Z,100153.18
2018-04-12T01:21:31.558Z,100146.30
2018-04-12T01:24:00.011Z,100142.95
2018-04-12T01:26:28.958Z,100139.94
2018-04-12T01:28:57.295Z,100137.50
2018-04-12T01:31:26.325Z,100134.06
2018-04-12T01:33:54.629Z,100125.00
2018-04-12T01:36:22.971Z,100125.00
2018-04-12T01:38:51.341Z,100132.92
2018-04-12T01:41:19.702Z,100134.58
2018-04-12T01:43:48.866Z,100133.80
2018-04-12T01:46:17.247Z,100129.63
2018-04-12T01:48:45.574Z,100122.39
2018-04-12T01:51:13.848Z,100126.81
2018-04-12T01:53:42.166Z,100126.48
2018-04-12T01:56:10.515Z,100123.32
2018-04-12T01:58:38.818Z,100120.66
2018-04-12T02:01:07.139Z,100123.95
2018-04-12T02:03:36.217Z,100123.06
2018-04-12T02:06:04.897Z,100116.88
2018-04-12T02:08:33.153Z,100117.50
2018-04-12T02:11:01.562Z,100110.39
2018-04-12T02:13:30.179Z,100104.26
2018-04-12T02:15:58.637Z,100102.84
2018-04-12T02:18:27.045Z,100097.24
2018-04-12T02:20:55.325Z,100103.33
2018-04-12T02:23:23.615Z,100101.67
2018-04-12T02:25:51.941Z,100090.60
2018-04-12T02:28:20.433Z,100086.03
2018-04-12T02:30:48.795Z,100085.41
2018-04-12T02:33:17.157Z,100082.08
2018-04-12T02:35:45.413Z,100084.47
2018-04-12T02:38:13.825Z,100077.19
2018-04-12T02:40:42.245Z,100082.22
2018-04-12T02:43:16.837Z,100077.14
2018-04-12T02:45:45.400Z,100064.95
2018-04-12T02:48:13.805Z,100068.30
2018-04-12T02:50:50.027Z,100061.80
2018-04-12T02:53:18.365Z,100054.56
2018-04-12T02:55:46.698Z,100047.63
2018-04-12T02:58:14.992Z,100054.39
2018-04-12T03:00:43.279Z,100037.81
2018-04-12T03:03:11.682Z,100042.66
2018-04-12T03:05:40.119Z,100042.12
2018-04-12T03:08:08.517Z,100037.63
2018-04-12T03:10:37.557Z,100036.70
2018-04-12T03:13:05.860Z,100036.75
2018-04-12T03:15:34.338Z,100034.97
2018-04-12T03:18:02.685Z,100038.62
2018-04-12T03:20:31.036Z,100031.81
2018-04-12T03:22:59.375Z,100039.41
2018-04-12T03:25:27.708Z,100027.23
2018-04-12T03:27:56.182Z,100023.06
2018-04-12T03:30:24.584Z,100014.49
2018-04-12T03:32:52.998Z,100019.28
2018-04-12T03:35:21.270Z,100009.69
2018-04-12T03:37:49.612Z,100011.42
2018-04-12T03:40:18.018Z,100008.70
2018-04-12T03:42:46.470Z,100012.58
2018-04-12T03:45:14.847Z,100010.94
2018-04-12T03:47:43.141Z,100003.65
2018-04-12T03:50:11.653Z,99997.61
2018-04-12T03:52:40.037Z,100002.36
2018-04-12T03:55:09.056Z,99995.91
2018-04-12T03:57:37.346Z,99996.62
2018-04-12T04:00:06.220Z,99989.83
2018-04-12T04:02:34.560Z,99982.95
2018-04-12T04:05:02.931Z,99985.16
2018-04-12T04:07:31.325Z,99980.19
2018-04-12T04:09:59.722Z,99988.69
2018-04-12T04:12:28.807Z,99982.78
2018-04-12T04:15:11.389Z,99986.95
2018-04-12T04:19:54.870Z,99990.10
2018-04-12T04:22:23.918Z,99984.06
2018-04-12T04:24:52.223Z,99975.30
2018-04-12T04:27:20.702Z,99967.55
2018-04-12T04:29:49.282Z,99971.01
2018-04-12T04:32:17.613Z,99971.98
2018-04-12T04:34:45.983Z,99975.84
2018-04-12T04:37:14.309Z,99973.23
2018-04-12T04:39:42.685Z,99967.81
2018-04-12T04:42:11.287Z,99966.11
2018-04-12T04:44:40.848Z,99965.63
2018-04-12T04:47:09.893Z,99962.75
2018-04-12T04:49:38.222Z,99963.45
2018-04-12T04:52:07.174Z,99969.13
2018-04-12T04:54:35.542Z,99958.39
2018-04-12T04:57:04.735Z,99956.17
2018-04-12T04:59:34.556Z,99954.56
2018-04-12T05:02:03.295Z,99947.33
2018-04-12T05:04:31.598Z,99956.03
2018-04-12T05:06:59.945Z,99953.05
2018-04-12T05:09:28.342Z,99952.35
2018-04-12T05:11:56.715Z,99950.27
2018-04-12T05:14:25.502Z,99957.05
2018-04-12T05:16:54.187Z,99950.53
2018-04-12T05:19:22.475Z,99957.16
2018-04-12T05:21:50.980Z,99947.45
2018-04-12T05:24:19.570Z,99950.97
2018-04-12T05:26:48.749Z,99937.99
2018-04-12T05:29:17.273Z,99944.17
2018-04-12T05:31:45.934Z,99949.38
2018-04-12T05:34:14.735Z,99951.28
2018-04-12T05:36:43.159Z,99946.84
2018-04-12T05:39:11.558Z,99942.31
2018-04-12T05:41:39.933Z,99945.59
2018-04-12T05:44:08.510Z,99953.20
2018-04-12T05:46:36.988Z,99940.27
2018-04-12T05:49:05.717Z,99943.25
2018-04-12T05:51:34.011Z,99937.07
2018-04-12T05:54:02.374Z,99940.75
2018-04-12T05:56:30.799Z,99943.38
2018-04-12T05:58:59.103Z,99937.56
2018-04-12T06:01:27.438Z,99948.13
2018-04-12T06:03:55.747Z,99942.53
2018-04-12T06:06:24.157Z,99937.25
2018-04-12T06:08:53.240Z,99946.21
2018-04-12T06:11:22.410Z,99942.22
2018-04-12T06:13:50.918Z,99945.28
2018-04-12T06:16:19.221Z,99948.33
2018-04-12T06:18:47.603Z,99939.98
2018-04-12T06:21:15.987Z,99939.03
2018-04-12T06:23:45.157Z,99935.65
2018-04-12T06:26:13.585Z,99936.53
2018-04-12T06:28:42.002Z,99928.02
2018-04-12T06:31:10.391Z,99923.03
2018-04-12T06:33:38.757Z,99926.79
2018-04-12T06:36:07.132Z,99922.33
2018-04-12T06:38:35.739Z,99929.44
2018-04-12T06:41:04.098Z,99917.14
2018-04-12T06:43:32.484Z,99919.81
2018-04-12T06:46:00.952Z,99925.14
2018-04-12T06:48:29.330Z,99926.89
2018-04-12T06:50:57.796Z,99924.78
2018-04-12T06:53:26.128Z,99938.17
2018-04-12T06:55:54.398Z,99934.00
2018-04-12T06:58:22.727Z,99930.64
2018-04-12T07:00:51.014Z,99924.86
2018-04-12T07:03:19.392Z,99925.48
2018-04-12T07:05:47.881Z,99916.45
2018-04-12T07:08:16.173Z,99919.20
2018-04-12T07:10:45.358Z,99909.63
2018-04-12T07:13:13.739Z,99911.58
2018-04-12T07:15:42.831Z,99917.02
2018-04-12T07:18:12.007Z,99922.74
2018-04-12T07:20:40.503Z,99924.72
2018-04-12T07:23:08.798Z,99928.95
2018-04-12T07:25:37.903Z,99920.87
2018-04-12T07:28:06.373Z,99919.61
2018-04-12T07:30:35.452Z,99916.94
2018-04-12T07:33:03.735Z,99914.98
2018-04-12T07:35:32.154Z,99910.27
2018-04-12T07:38:00.530Z,99905.07
2018-04-12T07:40:28.861Z,99905.09
2018-04-12T07:42:57.401Z,99904.01
2018-04-12T07:45:25.778Z,99894.87
2018-04-12T07:47:54.204Z,99900.60
2018-04-12T07:50:22.546Z,99895.33
2018-04-12T07:52:51.093Z,99894.45
2018-04-12T07:55:20.226Z,99941.28
2018-04-12T07:57:48.570Z,99970.80
2018-04-12T08:00:16.914Z,99946.25
2018-04-12T08:02:45.290Z,99937.95
2018-04-12T08:05:13.730Z,99955.76
2018-04-12T08:07:42.073Z,99961.70
2018-04-12T08:10:11.243Z,99966.41
2018-04-12T08:12:39.670Z,99955.70
2018-04-12T08:15:08.108Z,99944.59
2018-04-12T08:17:36.458Z,99950.46
2018-04-12T08:20:04.866Z,99944.56
2018-04-12T08:22:33.146Z,99928.66
2018-04-12T08:25:01.506Z,99925.67
2018-04-12T08:27:29.887Z,99935.38
2018-04-12T08:29:58.213Z,99940.78
2018-04-12T08:32:26.730Z,99953.78
2018-04-12T08:34:56.331Z,99945.69
2018-04-12T08:37:26.069Z,99951.55
2018-04-12T08:39:54.480Z,99924.28
2018-04-12T08:42:23.591Z,99915.02
2018-04-12T08:44:52.058Z,99908.85
2018-04-12T08:47:20.424Z,99903.33
2018-04-12T08:49:48.777Z,99901.45
2018-04-12T08:52:17.168Z,99893.33
2018-04-12T08:54:45.610Z,99896.54
2018-04-12T08:57:14.019Z,99894.42
2018-04-12T08:59:43.320Z,99889.74
2018-04-12T09:02:11.885Z,99890.51
2018-04-12T09:04:40.295Z,99894.87
2018-04-12T09:07:09.370Z,99881.17
2018-04-12T09:09:37.697Z,99881.73
2018-04-12T09:12:06.655Z,99882.84
2018-04-12T09:14:34.995Z,99884.30
2018-04-12T09:17:03.341Z,99868.56
2018-04-12T09:19:32.330Z,99859.03
2018-04-12T09:22:00.714Z,99867.81
2018-04-12T09:24:31.077Z,99867.96
2018-04-12T09:26:59.482Z,99853.49
2018-04-12T09:29:29.114Z,99861.27
2018-04-12T09:31:58.142Z,99859.56
2018-04-12T09:34:26.659Z,99868.56
2018-04-12T09:36:54.930Z,99846.17
2018-04-12T09:39:23.302Z,99833.33
2018-04-12T09:41:51.885Z,99821.45
2018-04-12T09:44:20.214Z,99815.16
2018-04-12T09:46:48.720Z,99810.80
2018-04-12T09:49:17.676Z,99809.67
2018-04-12T09:51:46.041Z,99798.19
2018-04-12T09:54:14.345Z,99790.25
2018-04-12T09:56:43.671Z,99790.08
2018-04-12T09:59:12.734Z,99788.31
2018-04-12T10:01:45.612Z,99774.54
2018-04-12T10:04:15.949Z,99768.53
2018-04-12T10:06:44.976Z,99769.64
2018-04-12T10:09:14.024Z,99775.62
2018-04-12T10:11:42.337Z,99779.78
2018-04-12T10:14:11.367Z,99782.88
2018-04-12T10:16:40.839Z,99785.00
2018-04-12T10:19:10.519Z,99800.77
2018-04-12T10:21:38.859Z,99813.07
2018-04-12T10:24:07.254Z,99800.11
2018-04-12T10:26:36.080Z,99806.77
2018-04-12T10:29:04.473Z,99799.33
2018-04-12T10:31:33.073Z,99787.50
2018-04-12T10:34:01.797Z,99800.28
2018-04-12T10:36:31.000Z,99807.04
2018-04-12T10:38:59.316Z,99800.92
2018-04-12T10:41:27.605Z,99805.41
2018-04-12T10:43:56.173Z,99806.77
2018-04-12T10:46:24.645Z,99807.95
2018-04-12T10:48:52.997Z,99811.41
2018-04-12T10:51:21.375Z,99810.89
2018-04-12T10:53:49.747Z,99810.23
2018-04-12T10:56:18.989Z,99809.23
2018-04-12T10:58:47.392Z,99811.61
2018-04-12T11:01:15.789Z,99817.22
2018-04-12T11:03:44.373Z,99817.84
2018-04-12T11:06:13.369Z,99812.05
2018-04-12T11:08:41.755Z,99822.02
2018-04-12T11:11:10.106Z,99818.50
2018-04-12T11:13:38.433Z,99817.28
2018-04-12T11:16:06.762Z,99813.92
2018-04-12T11:18:35.035Z,99811.37
2018-04-12T11:21:03.344Z,99802.74
2018-04-12T11:23:32.534Z,99800.41
2018-04-12T11:26:01.620Z,99803.06
2018-04-12T11:28:30.013Z,99811.61
2018-04-12T11:30:58.339Z,99808.55
2018-04-12T11:33:27.344Z,99809.38
2018-04-12T11:35:56.438Z,99805.14
2018-04-12T11:38:25.377Z,99802.30
2018-04-12T11:40:54.517Z,99803.91
2018-04-12T11:43:23.014Z,99806.98
2018-04-12T11:45:51.541Z,99806.83
2018-04-12T11:48:19.882Z,99799.19
2018-04-12T11:50:49.001Z,99802.92
2018-04-12T11:53:18.258Z,99804.22
2018-04-12T11:55:46.657Z,99802.11
2018-04-12T11:58:14.917Z,99790.05
2018-04-12T12:00:43.249Z,99788.08
2018-04-12T12:03:12.875Z,99791.26
2018-04-12T12:05:41.323Z,99784.80
2018-04-12T12:08:10.651Z,99773.98
2018-04-12T12:10:38.990Z,99772.33
2018-04-12T12:13:10.098Z,99768.05
2018-04-12T12:15:38.716Z,99778.90
2018-04-12T12:18:07.616Z,99780.97
2018-04-12T12:20:37.009Z,99782.56
2018-04-12T12:23:06.054Z,99775.85
2018-04-12T12:25:34.475Z,99771.06
2018-04-12T12:28:02.853Z,99766.09
2018-04-12T12:30:31.167Z,99766.17
2018-04-12T12:32:59.959Z,99761.94
2018-04-12T12:35:28.506Z,99760.76
2018-04-12T12:37:56.848Z,99748.19
2018-04-12T12:40:25.416Z,99748.11
2018-04-12T12:42:53.833Z,99752.03
2018-04-12T12:45:22.261Z,99748.31
2018-04-12T12:47:51.470Z,99758.88
2018-04-12T12:50:20.298Z,99750.65
2018-04-12T12:52:49.674Z,99751.55
2018-04-12T12:55:18.107Z,99748.28
2018-04-12T12:57:47.307Z,99742.75
2018-04-12T13:00:15.937Z,99746.56
2018-04-12T13:02:44.440Z,99744.17
2018-04-12T13:05:12.793Z,99738.66
2018-04-12T13:07:41.188Z,99734.61
2018-04-12T13:10:09.569Z,99733.98
2018-04-12T13:12:37.923Z,99729.67
2018-04-12T13:15:06.317Z,99730.04
2018-04-12T13:17:34.713Z,99731.72
2018-04-12T13:20:03.113Z,99727.80
2018-04-12T13:22:32.343Z,99727.64
2018-04-12T13:25:00.879Z,99724.44
2018-04-12T13:27:30.350Z,99727.03
2018-04-12T13:29:58.691Z,99730.78
2018-04-12T13:32:27.039Z,99725.80
2018-04-12T13:34:55.439Z,99722.80
2018-04-12T13:37:24.610Z,99710.58
2018-04-12T13:39:53.017Z,99711.98
2018-04-12T13:42:23.102Z,99704.21
2018-04-12T13:44:51.658Z,99704.94
2018-04-12T13:47:20.022Z,99714.59
2018-04-12T13:49:48.391Z,99720.00
2018-04-12T13:52:17.478Z,99727.60
2018-04-12T13:54:45.888Z,99735.78
2018-04-12T13:57:14.262Z,99744.89
2018-04-12T13:59:43.180Z,99745.32
2018-04-12T14:02:11.721Z,99746.03
2018-04-12T14:04:40.191Z,99746.75
2018-04-12T14:07:08.589Z,99749.65
2018-04-12T14:09:36.864Z,99741.84
2018-04-12T14:12:05.346Z,99724.95
2018-04-12T14:14:33.854Z,99713.68
2018-04-12T14:17:02.453Z,99726.19
2018-04-12T14:19:30.831Z,99719.96
2018-04-12T14:21:59.186Z,99704.60
2018-04-12T14:24:27.762Z,99711.66
2018-04-12T14:26:56.275Z,99712.83
2018-04-12T14:29:24.602Z,99710.22
2018-04-12T14:31:53.185Z,99727.61
2018-04-12T14:34:25.352Z,99729.22
2018-04-12T14:36:53.829Z,99717.38
2018-04-12T14:39:22.774Z,99725.85
2018-04-12T14:41:51.183Z,99727.64
2018-04-12T14:44:20.331Z,99723.62
2018-04-12T14:46:48.671Z,99721.92
2018-04-12T14:49:17.119Z,99726.66
2018-04-12T14:51:45.456Z,99709.19
2018-04-12T14:54:19.089Z,99716.44
2018-04-12T14:56:42.948Z,99710.64
2018-04-12T14:59:11.294Z,99715.97
2018-04-12T15:01:39.956Z,99720.32
2018-04-12T15:04:08.540Z,99719.91
2018-04-12T15:06:36.995Z,99718.84
2018-04-12T15:09:05.709Z,99725.88
2018-04-12T15:11:34.017Z,99717.58
2018-04-12T15:14:02.498Z,99717.56
2018-04-12T15:16:30.907Z,99725.21
2018-04-12T15:19:11.546Z,99724.00
2018-04-12T15:21:38.171Z,99726.09
2018-04-12T15:24:04.856Z,99731.09
2018-04-12T15:26:31.540Z,99737.40
2018-04-12T15:28:58.193Z,99724.08
2018-04-12T15:31:24.832Z,99724.95
2018-04-12T15:33:51.475Z,99724.17
2018-04-12T15:36:18.129Z,99726.86
2018-04-12T15:38:44.770Z,99727.23
2018-04-12T15:41:11.418Z,99730.56
2018-04-12T15:43:38.042Z,99728.27
2018-04-12T15:46:04.820Z,99724.52
2018-04-12T15:48:32.432Z,99726.52
2018-04-12T15:50:59.329Z,99726.52
2018-04-12T15:53:26.843Z,99720.34
2018-04-12T15:55:53.516Z,99718.73
2018-04-12T15:58:20.185Z,99723.30
2018-04-12T16:00:46.860Z,99722.31
2018-04-12T16:03:13.508Z,99721.09
2018-04-12T16:05:40.170Z,99730.58
2018-04-12T16:08:06.814Z,99724.55
2018-04-12T16:10:33.482Z,99727.67
2018-04-12T16:13:00.200Z,99721.19
2018-04-12T16:15:27.676Z,99726.25
2018-04-12T16:17:54.325Z,99723.52
2018-04-12T16:20:21.160Z,99725.05
2018-04-12T16:22:47.846Z,99726.02
2018-04-12T16:25:14.489Z,99731.30
2018-04-12T16:27:41.162Z,99733.48
2018-04-12T16:30:16.501Z,99730.66
2018-04-12T16:32:43.907Z,99736.56
2018-04-12T16:35:10.586Z,99747.91
2018-04-12T16:37:37.230Z,99737.58
2018-04-12T16:40:04.804Z,99735.59
2018-04-12T16:42:32.305Z,99735.86
2018-04-12T16:45:00.697Z,99738.51
2018-04-12T16:47:27.718Z,99741.59
2018-04-12T16:49:54.377Z,99737.67
2018-04-12T16:52:21.052Z,99742.52
2018-04-12T16:54:47.714Z,99742.34
2018-04-12T16:57:14.549Z,99734.77
2018-04-12T16:59:41.984Z,99738.61
2018-04-12T17:02:08.651Z,99735.44
2018-04-12T17:04:36.203Z,99740.02
2018-04-12T17:07:03.620Z,99745.36
2018-04-12T17:09:30.257Z,99751.77
2018-04-12T17:11:56.995Z,99760.11
2018-04-12T17:14:23.668Z,99765.84
2018-04-12T17:16:51.050Z,99765.41
2018-04-12T17:19:17.704Z,99768.70
2018-04-12T17:21:44.455Z,99777.89
2018-04-12T17:24:11.071Z,99780.81
2018-04-12T17:26:37.909Z,99771.01
2018-04-12T17:29:04.557Z,99770.42
2018-04-12T17:31:31.316Z,99775.32
2018-04-12T17:33:57.979Z,99780.57
2018-04-12T17:36:25.515Z,99770.94
2018-04-12T17:38:52.141Z,99773.22
2018-04-12T17:41:18.861Z,99781.21
2018-04-12T17:43:46.312Z,99791.84
2018-04-12T17:46:13.708Z,99792.42
2018-04-12T17:48:40.402Z,99793.06
2018-04-12T17:51:07.817Z,99788.80
2018-04-12T17:53:34.500Z,99792.63
2018-04-12T17:56:01.899Z,99786.41
2018-04-12T17:58:28.525Z,99785.89
2018-04-12T18:00:55.197Z,99794.70
2018-04-12T18:03:21.951Z,99794.70
2018-04-12T18:05:48.597Z,99789.52
2018-04-12T18:08:15.256Z,99808.42
2018-04-12T18:10:42.657Z,99814.45
2018-04-12T18:13:09.345Z,99812.74
2018-04-12T18:15:37.000Z,99809.84
2018-04-12T18:18:03.712Z,99815.63
2018-04-12T18:20:30.583Z,99833.24
2018-04-12T18:22:58.016Z,99835.30
2018-04-12T18:25:24.637Z,99834.78
2018-04-12T18:27:51.314Z,99838.51
2018-04-12T18:30:18.734Z,99842.70
2018-04-12T18:32:46.339Z,99854.16
2018-04-12T18:35:13.827Z,99854.38
2018-04-12T18:37:40.797Z,99856.13
2018-04-12T18:40:07.444Z,99859.01
2018-04-12T18:42:34.104Z,99858.89
2018-04-12T18:45:00.838Z,99872.25
2018-04-12T18:47:27.592Z,99878.52
2018-04-12T18:49:54.311Z,99879.58
2018-04-12T18:52:21.096Z,99882.23
2018-04-12T18:54:48.720Z,99886.48
2018-04-12T18:57:15.360Z,99892.81
2018-04-12T18:59:42.027Z,99894.57
2018-04-12T19:02:09.433Z,99890.17
2018-04-12T19:04:36.165Z,99891.63
2018-04-12T19:07:02.852Z,99886.76
2018-04-12T19:09:29.475Z,99888.66
2018-04-12T19:11:56.166Z,99891.50
2018-04-12T19:14:22.829Z,99893.78
2018-04-12T19:16:49.523Z,99898.38
2018-04-12T19:19:16.908Z,99892.34
2018-04-12T19:21:43.572Z,99892.09
2018-04-12T19:24:10.234Z,99890.15
2018-04-12T19:26:36.895Z,99896.82
2018-04-12T19:29:04.338Z,99901.01
2018-04-12T19:31:30.989Z,99906.92
2018-04-12T19:33:58.409Z,99911.77
2018-04-12T19:36:25.096Z,99911.02
2018-04-12T19:38:51.774Z,99922.66
2018-04-12T19:41:18.672Z,99919.16
2018-04-12T19:43:46.227Z,99928.91
2018-04-12T19:46:13.630Z,99919.41
2018-04-12T19:48:40.397Z,99914.92
2018-04-12T19:51:07.086Z,99920.48
2018-04-12T19:53:33.696Z,99920.89
2018-04-12T19:56:01.246Z,99918.49
2018-04-12T19:58:27.862Z,99924.86
2018-04-12T20:00:54.645Z,99928.79
2018-04-12T20:03:22.072Z,99935.40
2018-04-12T20:05:48.714Z,99941.41
2018-04-12T20:08:15.425Z,99943.48
2018-04-12T20:10:42.083Z,99949.84
2018-04-12T20:13:08.868Z,99957.40
2018-04-12T20:15:35.542Z,99957.31
2018-04-12T20:18:02.204Z,99963.73
2018-04-12T20:20:28.888Z,99971.98
2018-04-12T20:22:55.568Z,99969.66
2018-04-12T20:25:22.376Z,99961.39
2018-04-12T20:27:49.037Z,99972.57
2018-04-12T20:30:15.791Z,99978.67
2018-04-12T20:32:42.400Z,99982.48
2018-04-12T20:35:09.068Z,99973.86
2018-04-12T20:37:35.796Z,99971.70
2018-04-12T20:40:02.594Z,99968.10
2018-04-12T20:42:30.125Z,99972.30
2018-04-12T20:44:56.749Z,99976.61
2018-04-12T20:47:23.435Z,99973.29
2018-04-12T20:49:50.087Z,99973.36
2018-04-12T20:52:16.793Z,99969.70
2018-04-12T20:54:43.453Z,99967.82
2018-04-12T20:57:10.868Z,99969.98
2018-04-12T20:59:37.475Z,99969.59
2018-04-12T21:02:04.093Z,99969.81
2018-04-12T21:04:30.748Z,99966.34
2018-04-12T21:06:57.397Z,99972.92
2018-04-12T21:09:24.056Z,99972.74
2018-04-12T21:11:50.720Z,99972.41
2018-04-12T21:14:17.536Z,99970.85
2018-04-12T21:16:44.179Z,99964.75
2018-04-12T21:19:10.985Z,99973.47
2018-04-12T21:21:37.695Z,99974.51
2018-04-12T21:24:05.073Z,99969.66
2018-04-12T21:26:33.030Z,99973.01
2018-04-12T21:29:00.418Z,99970.33
2018-04-12T21:31:27.150Z,99976.05
2018-04-12T21:33:53.804Z,99981.14
2018-04-12T21:36:20.766Z,99971.20
2018-04-12T21:38:48.122Z,99973.13
2018-04-12T21:41:14.910Z,99976.01
2018-04-12T21:43:42.504Z,99973.44
2018-04-12T21:46:09.138Z,99978.16
2018-04-12T21:48:35.815Z,99975.95
2018-04-12T21:51:02.456Z,99972.98
2018-04-12T21:53:29.116Z,99977.08
2018-04-12T21:55:56.584Z,99984.45
2018-04-12T21:58:23.944Z,99986.60
2018-04-12T22:00:50.623Z,99993.02
2018-04-12T22:03:18.158Z,99991.50
2018-04-12T22:05:44.857Z,99995.05
2018-04-12T22:08:11.677Z,99999.02
2018-04-12T22:10:39.510Z,99997.80
2018-04-12T22:13:06.176Z,100001.69
2018-04-12T22:15:32.800Z,99996.92
2018-04-12T22:17:59.599Z,100010.52
2018-04-12T22:20:27.152Z,100022.69
2018-04-12T22:22:53.863Z,100024.98
2018-04-12T22:25:20.528Z,100028.51
2018-04-12T22:27:47.902Z,100031.98
2018-04-12T22:30:15.339Z,100041.37
2018-04-12T22:32:42.709Z,100039.09
2018-04-12T22:35:10.126Z,100047.65
2018-04-12T22:37:36.788Z,100050.11
2018-04-12T22:40:04.250Z,100054.37
2018-04-12T22:42:31.792Z,100064.98
2018-04-12T22:44:58.487Z,100062.89
2018-04-12T22:47:25.133Z,100067.31
2018-04-12T22:49:51.764Z,100062.31
2018-04-12T22:52:18.418Z,100073.50
2018-04-12T22:54:45.088Z,100069.38
2018-04-12T22:57:11.736Z,100063.05
2018-04-12T22:59:38.401Z,100067.57
2018-04-12T23:02:05.208Z,100067.97
2018-04-12T23:04:31.849Z,100064.20
2018-04-12T23:06:58.552Z,100061.06
2018-04-12T23:09:25.194Z,100058.48
2018-04-12T23:11:51.840Z,100063.59
2018-04-12T23:14:18.524Z,100070.05
2018-04-12T23:16:45.906Z,100071.52
2018-04-12T23:19:12.549Z,100072.63
2018-04-12T23:21:39.232Z,100069.41
2018-04-12T23:24:06.068Z,100075.59
2018-04-12T23:26:32.671Z,100075.78
2018-04-12T23:28:59.373Z,100069.27
2018-04-12T23:31:26.844Z,100070.92
2018-04-12T23:33:54.241Z,100068.25
2018-04-12T23:36:21.003Z,100069.44
2018-04-12T23:38:47.614Z,100072.29
2018-04-12T23:41:14.259Z,100061.58
2018-04-12T23:43:40.904Z,100066.24
2018-04-12T23:46:07.734Z,100064.92
2018-04-12T23:48:34.338Z,100076.20
2018-04-12T23:51:01.716Z,100079.56
2018-04-12T23:53:28.350Z,100083.57
2018-04-12T23:55:55.082Z,100083.67
2018-04-12T23:58:22.577Z,100088.40
